createdAt,value
2018-09-18T00:00:24.999Z,60.96
2018-09-18T00:02:54.450Z,61.31
2018-09-18T00:05:23.814Z,61.74
2018-09-18T00:07:53.275Z,62.74
2018-09-18T00:10:22.620Z,62.35
2018-09-18T00:12:52.043Z,62.45
2018-09-18T00:15:21.430Z,62.83
2018-09-18T00:17:50.852Z,62.93
2018-09-18T00:20:20.225Z,63.61
2018-09-18T00:22:49.616Z,63.57
2018-09-18T00:25:19.054Z,63.31
2018-09-18T00:27:48.422Z,63.68
2018-09-18T00:30:17.827Z,64.27
2018-09-18T00:32:47.206Z,64.86
2018-09-18T00:35:16.653Z,65.42
2018-09-18T00:37:46.017Z,66.19
2018-09-18T00:40:15.446Z,66.50
2018-09-18T00:42:44.823Z,67.11
2018-09-18T00:45:15.203Z,67.26
2018-09-18T00:47:44.570Z,67.13
2018-09-18T00:50:13.982Z,67.24
2018-09-18T00:52:43.371Z,67.93
2018-09-18T00:55:12.738Z,68.31
2018-09-18T00:57:42.112Z,68.71
2018-09-18T01:00:11.493Z,69.26
2018-09-18T01:02:40.875Z,69.52
2018-09-18T01:05:10.307Z,70.03
2018-09-18T01:07:39.738Z,70.01
2018-09-18T01:10:09.201Z,69.53
2018-09-18T01:12:38.578Z,69.82
2018-09-18T01:15:08.017Z,69.91
2018-09-18T01:17:37.390Z,69.51
2018-09-18T01:20:06.831Z,70.21
2018-09-18T01:22:36.204Z,69.88
2018-09-18T01:25:05.576Z,69.72
2018-09-18T01:27:35.039Z,70.30
2018-09-18T01:30:04.418Z,70.40
2018-09-18T01:32:33.837Z,70.43
2018-09-18T01:35:03.226Z,70.21
2018-09-18T01:37:32.638Z,70.24
2018-09-18T01:40:02.015Z,70.48
2018-09-18T01:42:31.501Z,71.02
2018-09-18T01:45:00.834Z,71.33
2018-09-18T01:47:30.197Z,71.82
2018-09-18T01:49:59.566Z,72.10
2018-09-18T01:52:28.981Z,71.99
2018-09-18T01:54:58.602Z,71.76
2018-09-18T01:57:27.971Z,71.81
2018-09-18T01:59:57.375Z,71.88
2018-09-18T02:02:26.746Z,72.22
2018-09-18T02:04:56.185Z,72.44
2018-09-18T02:07:25.553Z,72.28
2018-09-18T02:09:55.001Z,72.42
2018-09-18T02:12:24.366Z,72.22
2018-09-18T02:14:53.775Z,72.61
2018-09-18T02:17:23.143Z,72.26
2018-09-18T02:19:52.614Z,72.29
2018-09-18T02:22:21.975Z,72.71
2018-09-18T02:24:51.343Z,72.52
2018-09-18T02:27:20.810Z,72.04
2018-09-18T02:29:50.209Z,72.11
2018-09-18T02:32:19.585Z,71.91
2018-09-18T02:34:48.940Z,71.94
2018-09-18T02:37:18.408Z,71.64
2018-09-18T02:39:47.772Z,71.78
2018-09-18T02:42:17.228Z,71.87
2018-09-18T02:44:46.587Z,71.80
2018-09-18T02:47:15.961Z,71.68
2018-09-18T02:49:45.333Z,72.61
2018-09-18T02:52:14.733Z,72.63
2018-09-18T02:54:44.102Z,72.85
2018-09-18T02:57:13.547Z,73.43
2018-09-18T02:59:42.948Z,73.41
2018-09-18T03:02:12.302Z,73.28
2018-09-18T03:04:41.737Z,73.30
2018-09-18T03:07:11.102Z,73.84
2018-09-18T03:09:40.534Z,74.93
2018-09-18T03:12:09.919Z,75.25
2018-09-18T03:14:39.355Z,75.22
2018-09-18T03:17:08.730Z,74.99
2018-09-18T03:19:38.131Z,74.85
2018-09-18T03:22:07.507Z,75.06
2018-09-18T03:24:36.866Z,75.20
2018-09-18T03:27:06.402Z,74.65
2018-09-18T03:29:35.734Z,74.93
2018-09-18T03:32:05.145Z,75.34
2018-09-18T03:34:34.513Z,75.43
2018-09-18T03:37:03.958Z,75.59
2018-09-18T03:39:33.326Z,76.19
2018-09-18T03:42:02.920Z,76.89
2018-09-18T03:44:32.286Z,76.88
2018-09-18T03:47:01.677Z,76.57
2018-09-18T03:49:31.044Z,76.41
2018-09-18T03:52:00.477Z,76.35
2018-09-18T03:54:29.843Z,76.50
2018-09-18T03:56:59.300Z,76.31
2018-09-18T03:59:28.663Z,76.22
2018-09-18T04:01:58.095Z,76.67
2018-09-18T04:04:27.485Z,76.65
2018-09-18T04:06:56.904Z,76.65
2018-09-18T04:09:26.271Z,77.31
2018-09-18T04:11:55.695Z,77.33
2018-09-18T04:14:25.068Z,76.20
2018-09-18T04:16:54.523Z,75.56
2018-09-18T04:19:23.893Z,75.47
2018-09-18T04:21:53.302Z,75.78
2018-09-18T04:24:22.693Z,76.18
2018-09-18T04:26:52.138Z,77.18
2018-09-18T04:29:21.511Z,76.87
2018-09-18T04:31:50.907Z,77.11
2018-09-18T04:34:20.270Z,77.73
2018-09-18T04:36:49.736Z,77.92
2018-09-18T04:39:19.105Z,77.91
2018-09-18T04:41:48.525Z,78.58
2018-09-18T04:44:17.893Z,78.48
2018-09-18T04:46:47.318Z,78.37
2018-09-18T04:49:16.695Z,78.08
2018-09-18T04:51:46.057Z,78.01
2018-09-18T04:54:15.417Z,77.76
2018-09-18T04:56:44.835Z,77.73
2018-09-18T04:59:14.207Z,77.77
2018-09-18T05:01:43.640Z,77.73
2018-09-18T05:04:13.018Z,78.21
2018-09-18T05:06:42.441Z,78.39
2018-09-18T05:09:12.237Z,78.16
2018-09-18T05:11:41.679Z,78.31
2018-09-18T05:14:11.076Z,78.53
2018-09-18T05:16:40.434Z,78.76
2018-09-18T05:19:09.877Z,78.88
2018-09-18T05:21:39.247Z,78.60
2018-09-18T05:24:08.645Z,77.71
2018-09-18T05:26:38.010Z,78.59
2018-09-18T05:29:07.389Z,78.34
2018-09-18T05:31:36.798Z,78.07
2018-09-18T05:34:06.158Z,78.55
2018-09-18T05:36:35.602Z,79.45
2018-09-18T05:39:07.237Z,79.13
2018-09-18T05:41:36.652Z,78.36
2018-09-18T05:44:06.289Z,77.83
2018-09-18T05:46:36.310Z,78.17
2018-09-18T05:49:05.923Z,77.39
2018-09-18T05:51:35.626Z,77.40
2018-09-18T05:54:05.022Z,77.28
2018-09-18T05:56:34.522Z,77.26
2018-09-18T05:59:03.919Z,76.29
2018-09-18T06:01:33.408Z,75.51
2018-09-18T06:04:02.773Z,75.34
2018-09-18T06:06:32.458Z,75.03
2018-09-18T06:09:01.813Z,74.52
2018-09-18T06:11:31.221Z,73.84
2018-09-18T06:14:00.581Z,73.18
2018-09-18T06:16:29.953Z,72.80
2018-09-18T06:18:59.350Z,71.68
2018-09-18T06:21:28.707Z,71.56
2018-09-18T06:23:58.053Z,70.90
2018-09-18T06:26:27.536Z,70.69
2018-09-18T06:28:57.177Z,70.29
2018-09-18T06:31:26.641Z,70.08
2018-09-18T06:33:56.002Z,70.03
2018-09-18T06:36:25.437Z,70.25
2018-09-18T06:38:54.802Z,70.12
2018-09-18T06:41:24.255Z,69.72
2018-09-18T06:43:53.639Z,70.17
2018-09-18T06:46:23.071Z,70.10
2018-09-18T06:48:52.442Z,69.74
2018-09-18T06:51:21.847Z,69.63
2018-09-18T06:53:51.226Z,69.31
2018-09-18T06:56:20.677Z,69.20
2018-09-18T06:58:50.070Z,68.92
2018-09-18T07:01:19.558Z,69.02
2018-09-18T07:03:49.071Z,68.13
2018-09-18T07:06:18.459Z,67.75
2018-09-18T07:08:47.854Z,67.66
2018-09-18T07:11:17.274Z,67.18
2018-09-18T07:13:46.897Z,67.48
2018-09-18T07:16:16.282Z,67.13
2018-09-18T07:18:45.666Z,66.13
2018-09-18T07:21:15.085Z,66.19
2018-09-18T07:23:44.450Z,66.21
2018-09-18T07:26:13.894Z,65.57
2018-09-18T07:28:43.286Z,65.59
2018-09-18T07:31:12.698Z,65.27
2018-09-18T07:33:42.102Z,65.17
2018-09-18T07:36:11.514Z,64.77
2018-09-18T07:38:40.903Z,64.59
2018-09-18T07:41:10.426Z,64.48
2018-09-18T07:43:39.678Z,64.20
2018-09-18T07:46:09.109Z,64.92
2018-09-18T07:48:39.178Z,63.94
2018-09-18T07:51:10.094Z,64.14
2018-09-18T07:53:39.483Z,62.79
2018-09-18T07:56:08.867Z,63.47
2018-09-18T07:58:38.221Z,63.03
2018-09-18T08:01:07.692Z,61.42
2018-09-18T08:03:37.066Z,61.43
2018-09-18T08:06:06.514Z,60.56
2018-09-18T08:08:35.866Z,60.43
2018-09-18T08:11:05.284Z,60.51
2018-09-18T08:13:34.642Z,61.02
2018-09-18T08:16:04.128Z,60.58
2018-09-18T08:18:33.646Z,60.34
2018-09-18T08:21:03.121Z,59.73
2018-09-18T08:23:32.545Z,59.46
2018-09-18T08:26:01.919Z,58.82
2018-09-18T08:28:31.293Z,59.29
2018-09-18T08:31:00.741Z,58.89
2018-09-18T08:33:30.159Z,57.83
2018-09-18T08:35:59.629Z,57.40
2018-09-18T08:38:28.990Z,57.75
2018-09-18T08:40:58.472Z,57.50
2018-09-18T08:43:27.834Z,57.38
2018-09-18T08:45:57.240Z,56.67
2018-09-18T08:48:29.146Z,56.38
2018-09-18T08:50:59.666Z,55.65
2018-09-18T08:53:29.565Z,54.85
2018-09-18T08:55:58.954Z,55.03
2018-09-18T08:58:28.306Z,54.29
2018-09-18T09:00:57.759Z,54.97
2018-09-18T09:03:27.174Z,54.57
2018-09-18T09:05:56.634Z,54.32
2018-09-18T09:08:25.944Z,54.19
2018-09-18T09:10:55.456Z,52.67
2018-09-18T09:13:24.758Z,52.49
2018-09-18T09:15:54.182Z,52.29
2018-09-18T09:18:23.681Z,52.68
2018-09-18T09:20:53.959Z,52.40
2018-09-18T09:23:23.293Z,52.28
2018-09-18T09:25:52.712Z,51.55
2018-09-18T09:28:22.235Z,51.03
2018-09-18T09:30:51.730Z,50.23
2018-09-18T09:33:21.081Z,49.88
2018-09-18T09:35:50.507Z,49.12
2018-09-18T09:38:19.874Z,48.53
2018-09-18T09:40:49.323Z,48.33
2018-09-18T09:43:18.699Z,48.30
2018-09-18T09:45:48.130Z,48.14
2018-09-18T09:48:17.502Z,47.23
2018-09-18T09:50:46.929Z,47.36
2018-09-18T09:53:16.313Z,46.90
2018-09-18T09:55:45.750Z,46.84
2018-09-18T09:58:15.127Z,46.96
2018-09-18T10:00:49.900Z,46.33
2018-09-18T10:03:19.275Z,46.05
2018-09-18T10:05:48.643Z,46.99
2018-09-18T10:08:18.019Z,45.69
2018-09-18T10:10:47.566Z,45.13
2018-09-18T10:13:16.820Z,46.00
2018-09-18T10:15:46.187Z,44.96
2018-09-18T10:18:15.659Z,44.51
2018-09-18T10:20:44.947Z,43.77
2018-09-18T10:23:14.391Z,42.63
2018-09-18T10:25:43.752Z,43.24
2018-09-18T10:28:13.193Z,43.38
2018-09-18T10:30:42.556Z,42.51
2018-09-18T10:33:12.056Z,41.83
2018-09-18T10:35:41.382Z,42.28
2018-09-18T10:38:10.806Z,41.97
2018-09-18T10:40:40.163Z,41.52
2018-09-18T10:43:09.619Z,41.12
2018-09-18T10:45:38.975Z,40.21
2018-09-18T10:48:08.418Z,39.97
2018-09-18T10:50:37.927Z,39.58
2018-09-18T10:53:07.327Z,40.04
2018-09-18T10:55:36.685Z,38.78
2018-09-18T10:58:06.738Z,38.50
2018-09-18T11:00:36.106Z,37.95
2018-09-18T11:03:05.622Z,35.94
2018-09-18T11:05:35.111Z,36.62
2018-09-18T11:08:04.551Z,35.86
2018-09-18T11:17:29.625Z,33.12
2018-09-18T11:19:58.990Z,33.61
2018-09-18T11:22:28.491Z,32.50
2018-09-18T11:24:57.820Z,32.80
2018-09-18T11:27:27.212Z,33.97
2018-09-18T11:29:56.567Z,35.09
2018-09-18T11:32:26.002Z,33.07
2018-09-18T11:34:55.370Z,31.63
2018-09-18T11:37:24.834Z,32.90
2018-09-18T11:39:54.191Z,32.18
2018-09-18T11:42:23.594Z,32.43
2018-09-18T11:44:52.990Z,32.37
2018-09-18T11:47:22.435Z,33.71
2018-09-18T11:49:51.786Z,33.99
2018-09-18T11:52:21.235Z,31.81
2018-09-18T11:54:50.588Z,31.58
2018-09-18T11:57:20.064Z,31.88
2018-09-18T11:59:49.432Z,33.87
2018-09-18T12:02:18.849Z,32.82
2018-09-18T12:04:48.430Z,30.39
2018-09-18T12:07:17.681Z,31.34
2018-09-18T12:09:47.042Z,30.36
2018-09-18T12:12:16.458Z,29.76
2018-09-18T12:14:45.964Z,29.17
2018-09-18T12:17:15.516Z,28.05
2018-09-18T12:19:44.862Z,30.63
2018-09-18T12:22:14.312Z,28.64
2018-09-18T12:24:43.681Z,29.87
2018-09-18T12:27:14.144Z,29.60
2018-09-18T12:29:43.523Z,29.26
2018-09-18T12:32:12.911Z,29.21
2018-09-18T12:34:42.273Z,29.29
2018-09-18T12:37:11.875Z,28.69
2018-09-18T12:39:41.258Z,28.94
2018-09-18T12:42:10.819Z,29.15
2018-09-18T12:44:40.107Z,28.58
2018-09-18T12:47:09.547Z,27.15
2018-09-18T12:49:39.044Z,27.61
2018-09-18T12:52:08.337Z,28.51
2018-09-18T12:54:37.692Z,25.96
2018-09-18T12:57:07.192Z,28.94
2018-09-18T12:59:36.621Z,27.08
2018-09-18T13:02:05.950Z,26.81
2018-09-18T13:04:35.311Z,27.56
2018-09-18T13:07:05.846Z,26.74
2018-09-18T13:09:35.152Z,26.16
2018-09-18T13:12:05.624Z,27.24
2018-09-18T13:14:34.992Z,26.01
2018-09-18T13:17:04.451Z,28.28
2018-09-18T13:19:33.816Z,28.46
2018-09-18T13:22:03.228Z,28.57
2018-09-18T13:24:32.603Z,27.47
2018-09-18T13:27:02.020Z,26.67
2018-09-18T13:29:31.370Z,24.71
2018-09-18T13:32:00.835Z,27.72
2018-09-18T13:34:30.220Z,25.17
2018-09-18T13:36:59.637Z,24.25
2018-09-18T13:39:28.997Z,23.58
2018-09-18T13:41:58.423Z,23.58
2018-09-18T13:44:27.803Z,26.44
2018-09-18T13:46:57.492Z,26.73
2018-09-18T13:49:26.867Z,26.18
2018-09-18T13:51:56.312Z,25.04
2018-09-18T13:54:25.612Z,22.17
2018-09-18T13:56:55.035Z,25.85
2018-09-18T13:59:24.398Z,25.29
2018-09-18T14:01:53.861Z,25.86
2018-09-18T14:04:23.279Z,26.80
2018-09-18T14:06:52.668Z,26.71
2018-09-18T14:09:22.111Z,25.62
2018-09-18T14:11:51.466Z,25.06
2018-09-18T14:14:20.918Z,25.80
2018-09-18T14:16:50.277Z,26.50
2018-09-18T14:19:20.847Z,24.88
2018-09-18T14:21:50.291Z,23.83
2018-09-18T14:24:19.706Z,24.13
2018-09-18T14:26:49.098Z,24.64
2018-09-18T14:29:18.481Z,25.94
2018-09-18T14:31:47.915Z,24.28
2018-09-18T14:34:17.298Z,24.54
2018-09-18T14:36:46.718Z,22.89
2018-09-18T14:39:16.089Z,26.38
2018-09-18T14:41:45.527Z,24.93
2018-09-18T14:44:14.885Z,25.32
2018-09-18T14:46:44.345Z,25.92
2018-09-18T14:49:13.711Z,25.16
2018-09-18T14:51:43.143Z,25.81
2018-09-18T14:54:12.510Z,27.19
2018-09-18T14:56:41.943Z,26.02
2018-09-18T14:59:11.315Z,22.77
2018-09-18T15:01:40.737Z,24.03
2018-09-18T15:04:10.120Z,22.69
2018-09-18T15:06:39.547Z,23.37
2018-09-18T15:09:10.534Z,25.72
2018-09-18T15:11:40.242Z,25.24
2018-09-18T15:14:10.058Z,26.89
2018-09-18T15:16:39.421Z,26.20
2018-09-18T15:19:09.490Z,27.61
2018-09-18T15:21:38.906Z,28.17
2018-09-18T15:24:08.216Z,29.91
2018-09-18T15:26:37.782Z,27.31
2018-09-18T15:29:07.161Z,26.28
2018-09-18T15:31:36.538Z,25.71
2018-09-18T15:34:05.975Z,25.34
2018-09-18T15:36:35.358Z,25.84
2018-09-18T15:39:06.517Z,26.60
2018-09-18T15:41:35.900Z,25.57
2018-09-18T15:44:05.339Z,25.54
2018-09-18T15:46:35.190Z,27.22
2018-09-18T15:49:04.554Z,28.50
2018-09-18T15:51:34.218Z,29.61
2018-09-18T15:54:03.537Z,30.58
2018-09-18T15:56:32.922Z,31.91
2018-09-18T15:59:02.288Z,31.81
2018-09-18T16:01:31.874Z,30.33
2018-09-18T16:04:01.396Z,29.48
2018-09-18T16:06:30.859Z,29.52
2018-09-18T16:09:00.237Z,29.44
2018-09-18T16:11:29.658Z,28.66
2018-09-18T16:13:59.013Z,30.62
2018-09-18T16:16:28.516Z,30.46
2018-09-18T16:18:57.876Z,30.82
2018-09-18T16:21:27.290Z,30.59
2018-09-18T16:23:56.654Z,31.26
2018-09-18T16:26:26.095Z,31.88
2018-09-18T16:28:55.698Z,32.60
2018-09-18T16:31:25.103Z,32.94
2018-09-18T16:33:54.472Z,32.98
2018-09-18T16:36:23.900Z,33.87
2018-09-18T16:38:53.305Z,33.73
2018-09-18T16:42:51.835Z,33.92
2018-09-18T16:45:21.424Z,34.65
2018-09-18T16:47:50.800Z,34.07
2018-09-18T16:50:20.186Z,34.83
2018-09-18T16:52:49.607Z,35.18
2018-09-18T16:55:18.972Z,35.82
2018-09-18T16:57:48.403Z,35.66
2018-09-18T17:00:17.763Z,36.06
2018-09-18T17:02:47.231Z,36.57
2018-09-18T17:05:16.602Z,37.13
2018-09-18T17:07:46.022Z,37.54
2018-09-18T17:10:15.365Z,37.98
2018-09-18T17:12:44.851Z,37.86
2018-09-18T17:15:14.226Z,38.67
2018-09-18T17:17:43.638Z,38.42
2018-09-18T17:20:13.004Z,39.07
2018-09-18T17:22:57.275Z,39.91
2018-09-18T17:25:26.633Z,39.95
2018-09-18T17:27:56.102Z,40.17
2018-09-18T17:30:25.488Z,40.13
2018-09-18T17:32:54.887Z,40.31
2018-09-18T17:35:24.349Z,40.98
2018-09-18T17:37:53.703Z,41.17
2018-09-18T17:40:23.047Z,40.79
2018-09-18T17:42:52.488Z,41.17
2018-09-18T17:45:21.849Z,41.65
2018-09-18T17:47:51.348Z,42.08
2018-09-18T17:50:20.872Z,41.93
2018-09-18T17:52:50.227Z,42.43
2018-09-18T17:55:19.607Z,43.03
2018-09-18T17:57:49.037Z,43.00
2018-09-18T18:00:18.403Z,44.14
2018-09-18T18:02:47.886Z,43.80
2018-09-18T18:05:17.248Z,43.95
2018-09-18T18:07:46.649Z,44.19
2018-09-18T18:10:16.190Z,44.19
2018-09-18T18:12:45.642Z,44.63
2018-09-18T18:15:14.998Z,44.87
2018-09-18T18:17:44.473Z,44.94
2018-09-18T18:20:13.839Z,44.94
2018-09-18T18:22:43.370Z,45.95
2018-09-18T18:25:12.723Z,45.95
2018-09-18T18:27:42.173Z,46.51
2018-09-18T18:30:11.563Z,47.04
2018-09-18T18:32:40.974Z,47.17
2018-09-18T18:35:10.339Z,46.56
2018-09-18T18:37:39.770Z,46.25
2018-09-18T18:40:09.139Z,46.00
2018-09-18T18:42:38.562Z,46.36
2018-09-18T18:45:07.929Z,46.71
2018-09-18T18:47:37.389Z,46.86
2018-09-18T18:50:06.679Z,47.81
2018-09-18T18:52:36.091Z,46.58
2018-09-18T18:55:05.437Z,46.81
2018-09-18T18:57:34.876Z,46.71
2018-09-18T19:00:04.454Z,46.84
2018-09-18T19:02:33.907Z,47.26
2018-09-18T19:05:03.354Z,47.16
2018-09-18T19:07:32.726Z,46.71
2018-09-18T19:10:02.077Z,47.39
2018-09-18T19:12:31.507Z,47.41
2018-09-18T19:15:00.871Z,47.48
2018-09-18T19:17:30.307Z,47.60
2018-09-18T19:19:59.681Z,47.59
2018-09-18T19:22:29.131Z,48.16
2018-09-18T19:24:58.477Z,47.92
2018-09-18T19:27:27.844Z,48.61
2018-09-18T19:29:57.211Z,49.14
2018-09-18T19:32:26.635Z,49.30
2018-09-18T19:34:56.021Z,49.66
2018-09-18T19:37:25.427Z,49.89
2018-09-18T19:39:54.788Z,49.67
2018-09-18T19:42:24.228Z,50.59
2018-09-18T19:44:53.599Z,50.73
2018-09-18T19:47:23.214Z,50.91
2018-09-18T19:49:52.568Z,51.19
2018-09-18T19:52:22.051Z,51.59
2018-09-18T19:54:51.313Z,52.02
2018-09-18T19:57:20.751Z,52.20
2018-09-18T19:59:50.151Z,52.64
2018-09-18T20:02:19.552Z,52.36
2018-09-18T20:04:48.982Z,52.95
2018-09-18T20:07:18.361Z,53.23
2018-09-18T20:09:47.746Z,52.86
2018-09-18T20:12:18.022Z,53.01
2018-09-18T20:14:47.408Z,53.60
2018-09-18T20:17:16.750Z,52.94
2018-09-18T20:19:46.206Z,53.33
2018-09-18T20:22:15.714Z,53.54
2018-09-18T20:24:45.146Z,53.94
2018-09-18T20:27:14.660Z,53.71
2018-09-18T20:29:44.380Z,53.96
2018-09-18T20:32:13.798Z,54.25
2018-09-18T20:34:43.567Z,54.36
2018-09-18T20:37:13.235Z,54.85
2018-09-18T20:39:42.720Z,55.32
2018-09-18T20:42:12.299Z,54.89
2018-09-18T20:44:41.688Z,55.13
2018-09-18T20:47:11.206Z,55.38
2018-09-18T20:49:40.658Z,55.00
2018-09-18T20:52:10.242Z,55.64
2018-09-18T20:54:39.608Z,56.11
2018-09-18T20:57:09.116Z,55.49
2018-09-18T20:59:38.584Z,56.21
2018-09-18T21:02:08.081Z,56.46
2018-09-18T21:04:37.488Z,56.70
2018-09-18T21:07:07.062Z,56.63
2018-09-18T21:09:36.601Z,56.79
2018-09-18T21:12:05.959Z,57.08
2018-09-18T21:14:35.631Z,56.80
2018-09-18T21:17:05.085Z,57.13
2018-09-18T21:19:34.545Z,57.44
2018-09-18T21:22:03.950Z,57.71
2018-09-18T21:24:33.419Z,57.06
2018-09-18T21:27:02.859Z,57.39
2018-09-18T21:29:32.314Z,57.09
2018-09-18T21:32:01.732Z,57.21
2018-09-18T21:34:31.256Z,57.17
2018-09-18T21:37:00.688Z,57.42
2018-09-18T21:39:30.083Z,57.26
2018-09-18T21:41:59.454Z,57.86
2018-09-18T21:44:28.852Z,57.77
2018-09-18T21:46:58.480Z,58.34
2018-09-18T21:49:27.889Z,58.82
2018-09-18T21:51:57.323Z,58.70
2018-09-18T21:54:26.792Z,59.06
2018-09-18T21:56:56.193Z,58.83
2018-09-18T21:59:25.654Z,58.72
2018-09-18T22:01:55.010Z,59.06
2018-09-18T22:04:24.403Z,59.11
2018-09-18T22:06:53.841Z,58.79
2018-09-18T22:09:23.170Z,59.42
2018-09-18T22:11:52.610Z,59.78
2018-09-18T22:14:22.029Z,59.44
2018-09-18T22:16:51.399Z,59.86
2018-09-18T22:19:20.811Z,59.26
2018-09-18T22:21:50.233Z,60.23
2018-09-18T22:24:19.610Z,59.67
2018-09-18T22:26:49.166Z,59.67
2018-09-18T22:29:18.545Z,59.90
2018-09-18T22:31:48.069Z,59.51
2018-09-18T22:34:17.437Z,59.96
2018-09-18T22:36:46.840Z,59.92
2018-09-18T22:39:16.197Z,60.03
2018-09-18T22:41:45.644Z,60.05
2018-09-18T22:44:15.014Z,60.28
2018-09-18T22:46:44.468Z,60.40
2018-09-18T22:49:13.822Z,60.27
2018-09-18T22:51:43.251Z,60.21
2018-09-18T22:54:12.603Z,60.68
2018-09-18T22:56:42.040Z,61.13
2018-09-18T22:59:11.444Z,61.32
2018-09-18T23:01:40.845Z,61.19
2018-09-18T23:04:10.186Z,61.25
2018-09-18T23:06:39.706Z,61.65
2018-09-18T23:09:09.726Z,61.45
2018-09-18T23:11:39.219Z,61.10
2018-09-18T23:14:08.599Z,61.58
2018-09-18T23:16:37.985Z,62.07
2018-09-18T23:19:07.367Z,61.66
2018-09-18T23:21:36.788Z,61.44
2018-09-18T23:24:06.520Z,61.61
2018-09-18T23:26:36.154Z,61.89
2018-09-18T23:29:05.612Z,62.47
2018-09-18T23:31:35.142Z,61.41
2018-09-18T23:34:04.675Z,62.08
2018-09-18T23:36:34.131Z,61.98
2018-09-18T23:39:04.203Z,62.34
2018-09-18T23:41:33.645Z,61.91
2018-09-18T23:44:03.019Z,61.92
2018-09-18T23:46:32.600Z,62.03
2018-09-18T23:49:01.979Z,61.99
2018-09-18T23:51:31.352Z,61.81
2018-09-18T23:54:00.771Z,62.09
2018-09-18T23:56:30.182Z,62.30
2018-09-18T23:58:59.562Z,62.07
